Terminal Aerodrome Forecast
Issued by NWS

Home | Current Version | Previous Version | Text Only | Print | Product List | Glossary On
Versions: 1 2 3 4 5 6 7 8 9 10 11 12
757
FTUS43 KDTX 241720
TAFMBS
TAF
KMBS 241720Z 2418/2518 20016G24KT P6SM SCT120 BKN200
     FM242300 22014G20KT P6SM SCT120 BKN200
     FM250300 20011KT P6SM BKN150
     FM250700 23009KT P6SM SCT018 BKN030 OVC100
     FM251100 28010KT P6SM SCT012 BKN022
     FM251600 29013KT P6SM SCT025 BKN035=

USA.gov is the U.S. government's official web portal to all federal, state and local government web resources and services.